createdAt,value
2023-04-30T00:02:54.999Z,9.49
2023-04-30T00:07:58.829Z,9.46
2023-04-30T00:13:03.581Z,9.44
2023-04-30T00:18:08.052Z,9.41
2023-04-30T00:23:12.107Z,9.38
2023-04-30T00:28:20.068Z,9.35
2023-04-30T00:33:23.920Z,9.33
2023-04-30T00:38:28.607Z,9.31
2023-04-30T00:43:32.601Z,9.28
2023-04-30T00:48:37.313Z,9.25
2023-04-30T00:53:41.978Z,9.24
2023-04-30T00:58:46.463Z,9.22
2023-04-30T01:03:51.028Z,9.20
2023-04-30T01:08:55.520Z,9.18
2023-04-30T01:14:13.155Z,9.13
2023-04-30T01:19:25.987Z,9.09
2023-04-30T01:24:47.543Z,9.03
2023-04-30T01:29:51.509Z,8.98
2023-04-30T01:34:56.049Z,8.92
2023-04-30T01:40:25.731Z,8.86
2023-04-30T01:46:02.063Z,8.76
2023-04-30T01:51:17.063Z,8.62
2023-04-30T01:56:30.446Z,8.50
2023-04-30T02:01:34.828Z,8.37
2023-04-30T02:06:39.171Z,8.25
2023-04-30T02:11:43.289Z,8.07
2023-04-30T02:16:48.778Z,7.89
2023-04-30T02:21:55.547Z,7.72
2023-04-30T02:26:59.519Z,7.58
2023-04-30T02:32:04.097Z,7.47
2023-04-30T02:37:09.056Z,7.34
2023-04-30T02:42:13.014Z,7.23
2023-04-30T02:47:17.357Z,7.14
2023-04-30T02:52:22.065Z,7.00
2023-04-30T02:57:27.008Z,6.85
2023-04-30T03:02:31.399Z,6.70
2023-04-30T03:07:36.503Z,6.56
2023-04-30T03:12:41.636Z,6.41
2023-04-30T03:17:46.448Z,6.28
2023-04-30T03:22:51.230Z,6.18
2023-04-30T03:27:55.317Z,6.10
2023-04-30T03:33:00.435Z,6.03
2023-04-30T03:38:05.773Z,5.99
2023-04-30T03:43:10.007Z,5.99
2023-04-30T03:48:16.540Z,6.01
2023-04-30T03:53:21.326Z,6.01
2023-04-30T03:58:25.846Z,6.02
2023-04-30T04:03:30.057Z,5.98
2023-04-30T04:08:39.016Z,6.08
2023-04-30T04:13:43.539Z,6.76
2023-04-30T04:18:48.213Z,8.00
2023-04-30T04:23:52.109Z,9.04
2023-04-30T04:28:56.481Z,9.85
2023-04-30T04:34:01.550Z,10.45
2023-04-30T04:39:05.989Z,11.01
2023-04-30T04:44:09.996Z,11.20
2023-04-30T04:49:14.876Z,11.48
2023-04-30T04:54:18.736Z,11.45
2023-04-30T04:59:23.539Z,10.90
2023-04-30T05:04:28.417Z,10.26
2023-04-30T05:09:34.823Z,9.93
2023-04-30T05:14:38.759Z,9.58
2023-04-30T05:19:42.707Z,9.29
2023-04-30T05:24:46.657Z,9.10
2023-04-30T05:29:51.425Z,8.98
2023-04-30T05:34:56.166Z,9.09
2023-04-30T05:39:59.901Z,9.10
2023-04-30T05:45:05.435Z,9.05
2023-04-30T05:50:10.432Z,9.18
2023-04-30T05:55:15.762Z,9.26
2023-04-30T06:00:24.453Z,9.33
2023-04-30T06:05:29.117Z,9.25
2023-04-30T06:10:34.405Z,9.34
2023-04-30T06:15:39.152Z,9.37
2023-04-30T06:20:43.368Z,9.50
2023-04-30T06:25:47.712Z,9.54
2023-04-30T06:30:52.474Z,9.51
2023-04-30T06:35:57.379Z,9.52
2023-04-30T06:41:01.383Z,9.63
2023-04-30T06:46:07.429Z,9.71
2023-04-30T06:51:11.440Z,9.77
2023-04-30T06:56:15.485Z,9.81
2023-04-30T07:01:19.606Z,9.86
2023-04-30T07:06:26.244Z,10.03
2023-04-30T07:11:31.455Z,10.19
2023-04-30T07:16:35.767Z,10.24
2023-04-30T07:21:40.924Z,10.34
2023-04-30T07:26:44.896Z,10.46
2023-04-30T07:31:48.830Z,10.65
2023-04-30T07:36:52.731Z,10.78
2023-04-30T07:41:56.695Z,10.80
2023-04-30T07:47:00.595Z,10.81
2023-04-30T07:52:04.461Z,10.48
2023-04-30T07:57:08.603Z,10.68
2023-04-30T08:02:12.707Z,10.89
2023-04-30T08:07:18.782Z,11.04
2023-04-30T08:12:22.820Z,10.91
2023-04-30T08:17:27.034Z,10.91
2023-04-30T08:22:31.788Z,11.09
2023-04-30T08:27:36.576Z,11.36
2023-04-30T08:32:41.884Z,11.37
2023-04-30T08:37:47.398Z,11.48
2023-04-30T08:43:05.452Z,11.71
2023-04-30T08:48:16.471Z,11.91
2023-04-30T08:53:22.038Z,11.96
2023-04-30T08:58:26.020Z,11.86
2023-04-30T09:03:31.880Z,11.98
2023-04-30T09:08:47.598Z,12.12
2023-04-30T09:13:55.869Z,12.28
2023-04-30T09:19:00.245Z,12.35
2023-04-30T09:24:05.892Z,12.21
2023-04-30T09:29:10.950Z,12.27
2023-04-30T09:34:15.675Z,12.40
2023-04-30T09:39:19.834Z,12.63
2023-04-30T09:44:33.434Z,12.59
2023-04-30T09:49:38.406Z,12.71
2023-04-30T09:54:45.266Z,12.69
2023-04-30T09:59:49.539Z,12.49
2023-04-30T10:04:57.209Z,12.55
2023-04-30T10:10:08.962Z,12.65
2023-04-30T10:15:33.257Z,12.68
2023-04-30T10:20:38.868Z,12.67
2023-04-30T10:25:44.417Z,12.53
2023-04-30T10:30:48.724Z,12.77
2023-04-30T10:36:14.089Z,12.75
2023-04-30T10:41:20.566Z,12.73
2023-04-30T10:46:25.089Z,12.79
2023-04-30T10:51:48.876Z,12.87
2023-04-30T10:56:53.906Z,12.96
2023-04-30T11:02:00.951Z,13.04
2023-04-30T11:07:12.120Z,13.02
2023-04-30T11:12:28.874Z,13.10
2023-04-30T11:17:32.869Z,13.22
2023-04-30T11:22:39.440Z,13.34
2023-04-30T11:27:48.915Z,13.41
2023-04-30T11:32:55.148Z,13.46
2023-04-30T11:38:00.553Z,13.44
2023-04-30T11:43:04.609Z,13.66
2023-04-30T11:48:15.061Z,13.64
2023-04-30T11:53:19.524Z,13.63
2023-04-30T11:58:23.622Z,13.72
2023-04-30T12:03:27.767Z,13.78
2023-04-30T12:08:32.241Z,13.74
2023-04-30T12:13:36.957Z,13.73
2023-04-30T12:18:41.156Z,13.93
2023-04-30T12:23:49.276Z,13.91
2023-04-30T12:28:53.241Z,13.87
2023-04-30T12:33:57.618Z,13.97
2023-04-30T12:39:18.503Z,14.05
2023-04-30T12:44:27.916Z,14.03
2023-04-30T12:49:35.510Z,14.10
2023-04-30T12:54:45.600Z,14.20
2023-04-30T12:59:52.633Z,14.10
2023-04-30T13:04:57.387Z,14.09
2023-04-30T13:10:08.969Z,14.18
2023-04-30T13:15:12.996Z,14.15
2023-04-30T13:20:17.927Z,14.29
2023-04-30T13:25:22.695Z,14.27
2023-04-30T13:30:26.816Z,14.34
2023-04-30T13:35:30.835Z,14.53
2023-04-30T13:40:35.305Z,14.62
2023-04-30T13:45:40.154Z,14.63
2023-04-30T13:50:44.417Z,14.51
2023-04-30T13:55:49.217Z,14.45
2023-04-30T14:00:53.532Z,14.49
2023-04-30T14:06:02.032Z,14.58
2023-04-30T14:11:07.200Z,14.67
2023-04-30T14:16:11.344Z,14.68
2023-04-30T14:21:15.562Z,14.70
2023-04-30T14:26:19.260Z,14.80
2023-04-30T14:31:23.705Z,14.75
2023-04-30T14:36:28.694Z,14.70
2023-04-30T14:41:36.848Z,14.68
2023-04-30T14:46:41.273Z,14.73
2023-04-30T14:51:45.180Z,14.77
2023-04-30T14:56:49.838Z,14.74
2023-04-30T15:01:54.722Z,14.62
2023-04-30T15:06:58.807Z,14.62
2023-04-30T15:12:02.700Z,14.58
2023-04-30T15:17:06.581Z,14.53
2023-04-30T15:22:11.507Z,14.53
2023-04-30T15:27:16.728Z,14.69
2023-04-30T15:32:21.376Z,14.72
2023-04-30T15:37:25.677Z,14.67
2023-04-30T15:42:30.505Z,14.68
2023-04-30T15:47:34.354Z,14.65
2023-04-30T15:52:40.188Z,14.62
2023-04-30T15:57:45.066Z,14.56
2023-04-30T16:02:49.149Z,14.52
2023-04-30T16:07:54.753Z,14.54
2023-04-30T16:12:58.524Z,14.57
2023-04-30T16:18:02.397Z,14.54
2023-04-30T16:23:06.521Z,14.50
2023-04-30T16:28:10.655Z,14.43
2023-04-30T16:33:14.857Z,14.47
2023-04-30T16:38:19.084Z,14.45
2023-04-30T16:43:22.917Z,14.44
2023-04-30T16:48:26.795Z,14.70
2023-04-30T16:53:30.648Z,16.20
2023-04-30T16:58:35.432Z,17.49
2023-04-30T17:03:39.646Z,18.49
2023-04-30T17:08:43.800Z,18.86
2023-04-30T17:13:49.578Z,19.11
2023-04-30T17:18:53.963Z,19.28
2023-04-30T17:23:59.019Z,19.29
2023-04-30T17:29:09.167Z,18.79
2023-04-30T17:34:16.959Z,18.30
2023-04-30T17:39:22.505Z,18.00
2023-04-30T17:44:27.823Z,16.91
2023-04-30T17:49:33.271Z,15.51
2023-04-30T17:54:38.858Z,14.60
2023-04-30T17:59:44.475Z,13.86
2023-04-30T18:04:50.277Z,13.28
2023-04-30T18:09:54.856Z,12.72
2023-04-30T18:14:59.264Z,12.26
2023-04-30T18:20:04.349Z,11.90
2023-04-30T18:25:10.729Z,11.59
2023-04-30T18:30:14.635Z,11.28
2023-04-30T18:35:19.197Z,11.00
2023-04-30T18:40:25.226Z,10.75
2023-04-30T18:45:30.080Z,10.57
2023-04-30T18:50:36.033Z,10.34
2023-04-30T18:55:40.658Z,10.15
2023-04-30T19:00:46.003Z,9.97
2023-04-30T19:05:56.090Z,9.78
2023-04-30T19:11:05.225Z,9.56
2023-04-30T19:16:11.772Z,9.38
2023-04-30T19:21:16.796Z,9.18
2023-04-30T19:26:24.158Z,8.95
2023-04-30T19:31:37.012Z,8.83
2023-04-30T19:36:46.313Z,8.67
2023-04-30T19:41:52.761Z,8.56
2023-04-30T19:47:03.107Z,8.48
2023-04-30T19:52:09.605Z,8.38
2023-04-30T19:57:16.685Z,8.28
2023-04-30T20:02:21.831Z,8.05
2023-04-30T20:07:34.672Z,7.80
2023-04-30T20:12:40.398Z,7.54
2023-04-30T20:17:46.879Z,7.25
2023-04-30T20:22:54.839Z,6.91
2023-04-30T20:28:00.190Z,6.61
2023-04-30T20:33:08.847Z,6.42
2023-04-30T20:38:15.370Z,6.37
2023-04-30T20:43:20.753Z,6.21
2023-04-30T20:48:27.612Z,5.97
2023-04-30T20:53:32.381Z,5.59
2023-04-30T20:58:36.258Z,5.32
2023-04-30T21:03:41.156Z,5.11
2023-04-30T21:08:46.921Z,4.98
2023-04-30T21:13:52.174Z,4.87
2023-04-30T21:18:56.966Z,4.78
2023-04-30T21:24:10.081Z,4.70
2023-04-30T21:29:16.431Z,4.67
2023-04-30T21:34:23.827Z,4.63
2023-04-30T21:39:32.083Z,4.62
2023-04-30T21:44:37.540Z,4.66
2023-04-30T21:49:43.210Z,4.71
2023-04-30T21:54:50.238Z,4.69
2023-04-30T21:59:54.950Z,4.65
2023-04-30T22:05:02.772Z,4.57
2023-04-30T22:10:08.545Z,4.48
2023-04-30T22:15:14.657Z,4.35
2023-04-30T22:20:18.876Z,4.18
2023-04-30T22:25:23.917Z,4.00
2023-04-30T22:30:27.925Z,3.84
2023-04-30T22:35:36.465Z,3.79
2023-04-30T22:40:40.613Z,3.73
2023-04-30T22:45:44.778Z,3.57
2023-04-30T22:50:52.017Z,3.44
2023-04-30T22:55:57.928Z,3.44
2023-04-30T23:01:03.048Z,3.53
2023-04-30T23:06:07.971Z,3.63
2023-04-30T23:11:12.775Z,3.84
2023-04-30T23:16:17.079Z,3.79
2023-04-30T23:21:22.337Z,3.62
2023-04-30T23:26:27.056Z,3.45
2023-04-30T23:31:31.054Z,3.32
2023-04-30T23:36:36.352Z,3.17
2023-04-30T23:41:41.512Z,3.03
2023-04-30T23:46:45.581Z,3.02
2023-04-30T23:51:50.143Z,2.95
2023-04-30T23:56:58.745Z,2.84
